Time,TemperatureF,DewpointF,PressureIn,WindDirection,WindDirectionDegrees,WindSpeedMPH,WindSpeedGustMPH,Humidity,HourlyPrecipIn,Conditions,Clouds,dailyrainin,SolarRadiationWatts/m^2,SoftwareType,DateUTC
2013-08-12 00:00:00,53.1,40.8,30.36,WNW,292,9.0,14.0,63,0.00,,,0.00,0,WeatherCatV1.20B653,2013-08-12 06:00:00,
2013-08-12 00:05:00,52.8,41.0,30.36,WNW,292,9.0,15.0,64,0.00,,,0.00,0,WeatherCatV1.20B653,2013-08-12 06:05:00,
2013-08-12 00:10:00,52.8,41.0,30.36,WNW,292,9.0,15.0,64,0.00,,,0.00,0,WeatherCatV1.20B653,2013-08-12 06:10:00,
2013-08-12 00:15:00,52.8,41.0,30.36,WNW,292,9.0,15.0,64,0.00,,,0.00,0,WeatherCatV1.20B653,2013-08-12 06:15:00,
2013-08-12 00:20:00,51.6,41.0,30.37,WNW,292,8.0,14.0,67,0.00,,,0.00,0,WeatherCatV1.20B653,2013-08-12 06:20:00,
2013-08-12 00:25:00,51.6,41.0,30.37,WNW,292,8.0,14.0,67,0.00,,,0.00,0,WeatherCatV1.20B653,2013-08-12 06:25:00,
2013-08-12 00:30:00,51.6,41.0,30.37,WNW,292,8.0,14.0,67,0.00,,,0.00,0,WeatherCatV1.20B653,2013-08-12 06:30:00,
2013-08-12 00:35:00,52.0,40.6,30.36,WNW,292,7.0,11.0,65,0.00,,,0.00,0,WeatherCatV1.20B653,2013-08-12 06:35:00,
2013-08-12 00:40:00,52.0,40.6,30.36,WNW,292,7.0,11.0,65,0.00,,,0.00,0,WeatherCatV1.20B653,2013-08-12 06:40:00,
2013-08-12 00:45:00,52.0,40.6,30.36,WNW,292,7.0,11.0,65,0.00,,,0.00,0,WeatherCatV1.20B653,2013-08-12 06:45:00,
2013-08-12 00:50:00,52.0,40.6,30.36,WNW,292,7.0,13.0,65,0.00,,,0.00,0,WeatherCatV1.20B653,2013-08-12 06:50:00,
2013-08-12 00:55:00,52.0,40.6,30.36,WNW,292,7.0,13.0,65,0.00,,,0.00,0,WeatherCatV1.20B653,2013-08-12 06:55:00,
2013-08-12 01:00:00,52.0,40.6,30.36,WNW,292,7.0,13.0,65,0.00,,,0.00,0,WeatherCatV1.20B653,2013-08-12 07:00:00,
2013-08-12 01:05:00,51.3,40.3,30.35,WNW,292,8.0,14.0,66,0.00,,,0.00,0,WeatherCatV1.20B653,2013-08-12 07:05:00,
2013-08-12 01:10:00,51.3,40.3,30.35,WNW,292,8.0,14.0,66,0.00,,,0.00,0,WeatherCatV1.20B653,2013-08-12 07:10:00,
2013-08-12 01:15:00,51.3,40.3,30.35,WNW,292,8.0,14.0,66,0.00,,,0.00,0,WeatherCatV1.20B653,2013-08-12 07:15:00,
2013-08-12 01:20:00,51.1,40.1,30.35,WNW,292,8.0,14.0,66,0.00,,,0.00,0,WeatherCatV1.20B653,2013-08-12 07:20:00,
2013-08-12 01:25:00,51.1,40.1,30.35,WNW,292,8.0,14.0,66,0.00,,,0.00,0,WeatherCatV1.20B653,2013-08-12 07:25:00,
2013-08-12 01:30:00,51.7,40.3,30.35,WNW,292,8.0,13.0,65,0.00,,,0.00,0,WeatherCatV1.20B653,2013-08-12 07:30:00,
2013-08-12 01:35:00,51.7,40.3,30.35,WNW,292,8.0,13.0,65,0.00,,,0.00,0,WeatherCatV1.20B653,2013-08-12 07:35:00,
2013-08-12 01:40:00,51.7,40.3,30.35,WNW,292,8.0,13.0,65,0.00,,,0.00,0,WeatherCatV1.20B653,2013-08-12 07:40:00,
2013-08-12 01:45:00,51.4,40.0,30.35,WNW,292,9.0,15.0,65,0.00,,,0.00,0,WeatherCatV1.20B653,2013-08-12 07:45:00,
2013-08-12 01:50:00,51.4,40.0,30.35,WNW,292,9.0,15.0,65,0.00,,,0.00,0,WeatherCatV1.20B653,2013-08-12 07:50:00,
2013-08-12 01:55:00,51.4,40.0,30.35,WNW,292,9.0,15.0,65,0.00,,,0.00,0,WeatherCatV1.20B653,2013-08-12 07:55:00,
2013-08-12 02:00:00,51.1,39.7,30.35,WNW,292,5.0,13.0,65,0.00,,,0.00,0,WeatherCatV1.20B653,2013-08-12 08:00:00,
2013-08-12 02:05:00,51.1,39.7,30.35,WNW,292,5.0,13.0,65,0.00,,,0.00,0,WeatherCatV1.20B653,2013-08-12 08:05:00,
2013-08-12 02:10:00,51.1,39.7,30.35,WNW,292,5.0,13.0,65,0.00,,,0.00,0,WeatherCatV1.20B653,2013-08-12 08:10:00,
2013-08-12 02:15:00,50.5,40.0,30.35,WNW,292,1.0,6.0,67,0.00,,,0.00,0,WeatherCatV1.20B653,2013-08-12 08:15:00,
2013-08-12 02:20:00,50.5,40.0,30.35,WNW,292,1.0,6.0,67,0.00,,,0.00,0,WeatherCatV1.20B653,2013-08-12 08:20:00,
2013-08-12 02:25:00,50.5,40.0,30.35,WNW,292,1.0,6.0,67,0.00,,,0.00,0,WeatherCatV1.20B653,2013-08-12 08:25:00,
2013-08-12 02:30:00,50.5,40.0,30.35,WNW,292,1.0,6.0,67,0.00,,,0.00,0,WeatherCatV1.20B653,2013-08-12 08:30:00,
2013-08-12 02:35:00,50.5,40.0,30.35,West,270,1.0,7.0,67,0.00,,,0.00,0,WeatherCatV1.20B653,2013-08-12 08:35:00,
2013-08-12 02:40:00,50.5,40.0,30.35,West,270,1.0,7.0,67,0.00,,,0.00,0,WeatherCatV1.20B653,2013-08-12 08:40:00,
2013-08-12 02:45:00,50.5,40.0,30.35,West,270,1.0,7.0,67,0.00,,,0.00,0,WeatherCatV1.20B653,2013-08-12 08:45:00,
2013-08-12 02:50:00,50.4,39.9,30.34,NW,315,2.0,10.0,67,0.00,,,0.00,0,WeatherCatV1.20B653,2013-08-12 08:50:00,
2013-08-12 02:55:00,50.4,39.9,30.34,NW,315,2.0,10.0,67,0.00,,,0.00,0,WeatherCatV1.20B653,2013-08-12 08:55:00,
2013-08-12 03:00:00,50.4,39.9,30.34,NW,315,2.0,10.0,67,0.00,,,0.00,0,WeatherCatV1.20B653,2013-08-12 09:00:00,
2013-08-12 03:05:00,50.8,39.8,30.34,WNW,292,5.0,11.0,66,0.00,,,0.00,0,WeatherCatV1.20B653,2013-08-12 09:05:00,
2013-08-12 03:10:00,50.8,39.8,30.34,WNW,292,5.0,11.0,66,0.00,,,0.00,0,WeatherCatV1.20B653,2013-08-12 09:10:00,
2013-08-12 03:15:00,50.8,39.8,30.34,WNW,292,5.0,11.0,66,0.00,,,0.00,0,WeatherCatV1.20B653,2013-08-12 09:15:00,
2013-08-12 03:20:00,51.4,40.0,30.34,NW,315,5.0,12.0,65,0.00,,,0.00,0,WeatherCatV1.20B653,2013-08-12 09:20:00,
2013-08-12 03:25:00,51.4,40.0,30.34,NW,315,5.0,12.0,65,0.00,,,0.00,0,WeatherCatV1.20B653,2013-08-12 09:25:00,
2013-08-12 03:30:00,51.4,40.0,30.34,NW,315,5.0,12.0,65,0.00,,,0.00,0,WeatherCatV1.20B653,2013-08-12 09:30:00,
2013-08-12 03:35:00,50.8,39.8,30.34,NW,315,0.0,0.0,66,0.00,,,0.00,0,WeatherCatV1.20B653,2013-08-12 09:35:00,
2013-08-12 03:40:00,50.8,39.8,30.34,NW,315,0.0,0.0,66,0.00,,,0.00,0,WeatherCatV1.20B653,2013-08-12 09:40:00,
2013-08-12 03:45:00,50.8,39.8,30.34,NW,315,0.0,0.0,66,0.00,,,0.00,0,WeatherCatV1.20B653,2013-08-12 09:45:00,
2013-08-12 03:50:00,50.4,39.9,30.34,NW,315,0.0,5.0,67,0.00,,,0.00,0,WeatherCatV1.20B653,2013-08-12 09:50:00,
2013-08-12 03:55:00,50.4,39.9,30.34,NW,315,0.0,5.0,67,0.00,,,0.00,0,WeatherCatV1.20B653,2013-08-12 09:55:00,
2013-08-12 04:00:00,50.4,39.9,30.34,NW,315,0.0,5.0,67,0.00,,,0.00,0,WeatherCatV1.20B653,2013-08-12 10:00:00,
2013-08-12 04:05:00,50.1,40.7,30.34,NW,315,0.0,0.0,70,0.00,,,0.00,0,WeatherCatV1.20B653,2013-08-12 10:05:00,
2013-08-12 04:10:00,50.1,40.7,30.34,NW,315,0.0,0.0,70,0.00,,,0.00,0,WeatherCatV1.20B653,2013-08-12 10:10:00,
2013-08-12 04:15:00,50.1,40.7,30.34,NW,315,0.0,0.0,70,0.00,,,0.00,0,WeatherCatV1.20B653,2013-08-12 10:15:00,
2013-08-12 04:20:00,49.8,40.8,30.34,NW,315,0.0,1.0,71,0.00,,,0.00,0,WeatherCatV1.20B653,2013-08-12 10:20:00,
2013-08-12 04:25:00,49.8,40.8,30.34,NW,315,0.0,1.0,71,0.00,,,0.00,0,WeatherCatV1.20B653,2013-08-12 10:25:00,
2013-08-12 04:30:00,49.8,40.8,30.34,NW,315,0.0,1.0,71,0.00,,,0.00,0,WeatherCatV1.20B653,2013-08-12 10:30:00,
2013-08-12 04:35:00,49.5,40.5,30.34,NW,315,0.0,0.0,71,0.00,,,0.00,0,WeatherCatV1.20B653,2013-08-12 10:35:00,
2013-08-12 04:40:00,49.5,40.5,30.34,NW,315,0.0,0.0,71,0.00,,,0.00,0,WeatherCatV1.20B653,2013-08-12 10:40:00,
2013-08-12 04:45:00,49.5,40.5,30.34,NW,315,0.0,0.0,71,0.00,,,0.00,0,WeatherCatV1.20B653,2013-08-12 10:45:00,
2013-08-12 04:50:00,49.2,40.9,30.34,NW,315,0.0,0.0,73,0.00,,,0.00,0,WeatherCatV1.20B653,2013-08-12 10:50:00,
2013-08-12 04:55:00,49.2,40.9,30.34,NW,315,0.0,0.0,73,0.00,,,0.00,0,WeatherCatV1.20B653,2013-08-12 10:55:00,
2013-08-12 05:07:00,49.2,40.9,30.34,NW,315,0.0,0.0,73,0.00,,,0.00,0,WeatherCatV1.20B653,2013-08-12 11:07:00,
2013-08-12 05:12:00,47.9,40.7,30.34,NW,308,0.0,0.0,76,0.00,,,0.00,0,WeatherCatV1.20B653,2013-08-12 11:12:00,
2013-08-12 05:17:00,47.7,40.5,30.34,NW,308,0.0,0.0,76,0.00,,,0.00,0,WeatherCatV1.20B653,2013-08-12 11:17:00,
2013-08-12 05:22:00,47.6,40.8,30.34,NW,308,0.0,0.0,77,0.00,,,0.00,0,WeatherCatV1.20B653,2013-08-12 11:22:00,
2013-08-12 05:27:00,47.4,40.6,30.34,NW,308,0.0,0.0,77,0.00,,,0.00,0,WeatherCatV1.20B653,2013-08-12 11:27:00,
2013-08-12 05:32:00,47.1,40.3,30.33,NW,308,0.0,0.0,77,0.00,,,0.00,0,WeatherCatV1.20B653,2013-08-12 11:32:00,
2013-08-12 05:37:00,47.0,40.5,30.33,NW,308,0.0,0.0,78,0.00,,,0.00,0,WeatherCatV1.20B653,2013-08-12 11:37:00,
2013-08-12 05:42:00,47.0,40.8,30.33,NW,308,0.0,0.0,79,0.00,,,0.00,0,WeatherCatV1.20B653,2013-08-12 11:42:00,
2013-08-12 05:47:00,47.0,40.5,30.33,NW,308,0.0,1.0,78,0.00,,,0.00,0,WeatherCatV1.20B653,2013-08-12 11:47:00,
2013-08-12 05:52:00,47.1,40.3,30.33,NW,308,1.0,2.0,77,0.00,,,0.00,0,WeatherCatV1.20B653,2013-08-12 11:52:00,
2013-08-12 05:57:00,47.3,40.1,30.33,NW,309,5.0,6.0,76,0.00,,,0.00,0,WeatherCatV1.20B653,2013-08-12 11:57:00,
2013-08-12 06:02:00,47.4,40.2,30.33,NNW,344,2.0,6.0,76,0.00,,,0.00,0,WeatherCatV1.20B653,2013-08-12 12:02:00,
2013-08-12 06:07:00,47.6,40.1,30.33,NNW,344,0.0,0.0,75,0.00,,,0.00,0,WeatherCatV1.20B653,2013-08-12 12:07:00,
2013-08-12 06:12:00,47.6,40.1,30.33,NNW,344,0.0,0.0,75,0.00,,,0.00,0,WeatherCatV1.20B653,2013-08-12 12:12:00,
2013-08-12 06:17:00,47.4,39.9,30.34,NNW,344,0.0,0.0,75,0.00,,,0.00,0,WeatherCatV1.20B653,2013-08-12 12:17:00,
2013-08-12 06:22:00,47.4,39.5,30.34,WNW,287,6.0,11.0,74,0.00,,,0.00,5,WeatherCatV1.20B653,2013-08-12 12:22:00,
2013-08-12 06:27:00,48.0,39.0,30.34,NW,304,5.0,11.0,71,0.00,,,0.00,7,WeatherCatV1.20B653,2013-08-12 12:27:00,
2013-08-12 06:32:00,48.9,38.8,30.34,WNW,294,6.0,11.0,68,0.00,,,0.00,11,WeatherCatV1.20B653,2013-08-12 12:32:00,
2013-08-12 06:37:00,49.5,39.4,30.34,NW,305,0.0,6.0,68,0.00,,,0.00,18,WeatherCatV1.20B653,2013-08-12 12:37:00,
2013-08-12 06:42:00,49.6,39.8,30.34,West,278,5.0,6.0,69,0.00,,,0.00,26,WeatherCatV1.20B653,2013-08-12 12:42:00,
2013-08-12 06:47:00,49.5,39.8,30.34,WNW,291,3.0,3.0,69,0.00,,,0.00,33,WeatherCatV1.20B653,2013-08-12 12:47:00,
2013-08-12 06:52:00,49.5,39.4,30.34,NW,326,2.0,5.0,68,0.00,,,0.00,40,WeatherCatV1.20B653,2013-08-12 12:52:00,
2013-08-12 06:57:00,49.8,39.3,30.34,NW,306,7.0,7.0,67,0.00,,,0.00,32,WeatherCatV1.20B653,2013-08-12 12:57:00,
2013-08-12 07:02:00,50.2,38.9,30.34,WNW,294,3.0,8.0,65,0.00,,,0.00,25,WeatherCatV1.20B653,2013-08-12 13:02:00,
2013-08-12 07:07:00,50.7,39.4,30.34,NW,320,6.0,11.0,65,0.00,,,0.00,25,WeatherCatV1.20B653,2013-08-12 13:07:00,
2013-08-12 07:12:00,51.1,39.3,30.34,NW,313,6.0,8.0,64,0.00,,,0.00,26,WeatherCatV1.20B653,2013-08-12 13:12:00,
2013-08-12 07:17:00,51.7,39.9,30.34,WNW,299,2.0,3.0,64,0.00,,,0.00,158,WeatherCatV1.20B653,2013-08-12 13:17:00,
2013-08-12 07:22:00,52.5,40.3,30.34,WNW,299,0.0,0.0,63,0.00,,,0.00,174,WeatherCatV1.20B653,2013-08-12 13:22:00,
2013-08-12 07:27:00,53.2,40.5,30.34,WNW,299,1.0,1.0,62,0.00,,,0.00,192,WeatherCatV1.20B653,2013-08-12 13:27:00,
2013-08-12 07:32:00,53.9,40.8,30.34,WNW,299,0.0,0.0,61,0.00,,,0.00,209,WeatherCatV1.20B653,2013-08-12 13:32:00,
2013-08-12 07:37:00,54.8,40.8,30.34,WNW,299,0.0,0.0,59,0.00,,,0.00,225,WeatherCatV1.20B653,2013-08-12 13:37:00,
2013-08-12 07:42:00,56.0,41.0,30.34,WNW,299,0.0,0.0,57,0.00,,,0.00,245,WeatherCatV1.20B653,2013-08-12 13:42:00,
2013-08-12 07:47:00,57.0,41.0,30.34,WNW,299,0.0,0.0,55,0.00,,,0.00,260,WeatherCatV1.20B653,2013-08-12 13:47:00,
2013-08-12 07:52:00,58.0,41.9,30.34,WNW,299,0.0,0.0,55,0.00,,,0.00,280,WeatherCatV1.20B653,2013-08-12 13:52:00,
2013-08-12 07:57:00,58.7,41.6,30.34,WNW,299,0.0,0.0,53,0.00,,,0.00,297,WeatherCatV1.20B653,2013-08-12 13:57:00,
2013-08-12 08:02:00,59.2,42.1,30.34,WNW,299,0.0,0.0,53,0.00,,,0.00,315,WeatherCatV1.20B653,2013-08-12 14:02:00,
2013-08-12 08:07:00,59.8,42.1,30.34,WNW,299,0.0,0.0,52,0.00,,,0.00,333,WeatherCatV1.20B653,2013-08-12 14:07:00,
2013-08-12 08:12:00,59.9,41.2,30.34,WNW,299,0.0,1.0,50,0.00,,,0.00,350,WeatherCatV1.20B653,2013-08-12 14:12:00,
2013-08-12 08:17:00,59.9,41.2,30.34,WNW,299,0.0,0.0,50,0.00,,,0.00,368,WeatherCatV1.20B653,2013-08-12 14:17:00,
2013-08-12 08:22:00,59.9,42.2,30.34,WNW,298,1.0,2.0,52,0.00,,,0.00,385,WeatherCatV1.20B653,2013-08-12 14:22:00,
2013-08-12 08:27:00,59.8,44.5,30.34,SW,233,0.0,1.0,57,0.00,,,0.00,403,WeatherCatV1.20B653,2013-08-12 14:27:00,
2013-08-12 08:32:00,59.5,43.8,30.33,SW,233,0.0,0.0,56,0.00,,,0.00,419,WeatherCatV1.20B653,2013-08-12 14:32:00,
2013-08-12 08:37:00,59.9,44.2,30.33,SW,232,1.0,3.0,56,0.00,,,0.00,436,WeatherCatV1.20B653,2013-08-12 14:37:00,
2013-08-12 08:42:00,60.4,44.2,30.33,SW,227,1.0,3.0,55,0.00,,,0.00,452,WeatherCatV1.20B653,2013-08-12 14:42:00,
2013-08-12 08:47:00,60.4,43.7,30.33,South,185,2.0,6.0,54,0.00,,,0.00,468,WeatherCatV1.20B653,2013-08-12 14:47:00,
2013-08-12 08:52:00,60.1,43.9,30.33,South,171,6.0,7.0,55,0.00,,,0.00,484,WeatherCatV1.20B653,2013-08-12 14:52:00,
2013-08-12 08:57:00,59.8,45.0,30.33,SSE,161,4.0,7.0,58,0.00,,,0.00,501,WeatherCatV1.20B653,2013-08-12 14:57:00,
2013-08-12 09:02:00,59.8,45.4,30.33,SSE,155,5.0,6.0,59,0.00,,,0.00,512,WeatherCatV1.20B653,2013-08-12 15:02:00,
2013-08-12 09:07:00,59.9,46.0,30.33,SSE,147,5.0,6.0,60,0.00,,,0.00,530,WeatherCatV1.20B653,2013-08-12 15:07:00,
2013-08-12 09:12:00,60.5,45.7,30.33,SSE,151,6.0,7.0,58,0.00,,,0.00,549,WeatherCatV1.20B653,2013-08-12 15:12:00,
2013-08-12 09:17:00,60.2,45.4,30.33,SE,141,3.0,8.0,58,0.00,,,0.00,577,WeatherCatV1.20B653,2013-08-12 15:17:00,
2013-08-12 09:22:00,60.2,45.4,30.33,SE,131,6.0,6.0,58,0.00,,,0.00,604,WeatherCatV1.20B653,2013-08-12 15:22:00,
2013-08-12 09:27:00,60.5,45.2,30.33,SE,133,6.0,7.0,57,0.00,,,0.00,621,WeatherCatV1.20B653,2013-08-12 15:27:00,
2013-08-12 09:32:00,61.2,45.4,30.33,SE,133,4.0,7.0,56,0.00,,,0.00,642,WeatherCatV1.20B653,2013-08-12 15:32:00,
2013-08-12 09:37:00,61.8,45.9,30.33,SE,130,6.0,7.0,56,0.00,,,0.00,677,WeatherCatV1.20B653,2013-08-12 15:37:00,
2013-08-12 09:42:00,62.6,45.2,30.33,SE,130,1.0,7.0,53,0.00,,,0.00,746,WeatherCatV1.20B653,2013-08-12 15:42:00,
2013-08-12 09:47:00,63.2,45.8,30.33,SE,127,4.0,7.0,53,0.00,,,0.00,787,WeatherCatV1.20B653,2013-08-12 15:47:00,
2013-08-12 09:52:00,63.9,45.4,30.33,SE,126,5.0,6.0,51,0.00,,,0.00,760,WeatherCatV1.20B653,2013-08-12 15:52:00,
2013-08-12 09:57:00,64.3,45.8,30.33,ESE,117,3.0,7.0,51,0.00,,,0.00,776,WeatherCatV1.20B653,2013-08-12 15:57:00,
2013-08-12 10:02:00,64.8,43.5,30.33,ESE,117,0.0,1.0,46,0.00,,,0.00,846,WeatherCatV1.20B653,2013-08-12 16:02:00,
2013-08-12 10:07:00,65.5,45.8,30.33,SE,130,3.0,7.0,49,0.00,,,0.00,906,WeatherCatV1.20B653,2013-08-12 16:07:00,
2013-08-12 10:12:00,65.6,44.8,30.33,SE,130,0.0,0.0,47,0.00,,,0.00,906,WeatherCatV1.20B653,2013-08-12 16:12:00,
2013-08-12 10:17:00,66.3,43.7,30.32,SE,130,0.0,0.0,44,0.00,,,0.00,396,WeatherCatV1.20B653,2013-08-12 16:17:00,
2013-08-12 10:22:00,66.8,45.3,30.32,SE,136,6.0,7.0,46,0.00,,,0.00,549,WeatherCatV1.20B653,2013-08-12 16:22:00,
2013-08-12 10:27:00,66.9,45.4,30.32,ESE,121,3.0,3.0,46,0.00,,,0.00,260,WeatherCatV1.20B653,2013-08-12 16:27:00,
2013-08-12 10:32:00,66.8,45.3,30.32,ESE,106,2.0,8.0,46,0.00,,,0.00,331,WeatherCatV1.20B653,2013-08-12 16:32:00,
2013-08-12 10:35:00,67.1,44.5,30.32,ESE,110,5.0,7.0,44,0.00,,,0.00,248,WeatherCatV1.20B653,2013-08-12 16:35:00,
2013-08-12 10:40:00,66.3,43.1,30.32,SE,124,8.0,8.0,43,0.00,,,0.00,230,WeatherCatV1.20B653,2013-08-12 16:40:00,
2013-08-12 10:45:00,65.6,43.7,30.33,ESE,112,5.0,7.0,45,0.00,,,0.00,259,WeatherCatV1.20B653,2013-08-12 16:45:00,
2013-08-12 10:50:00,65.5,43.6,30.33,ESE,112,6.0,8.0,45,0.00,,,0.00,292,WeatherCatV1.20B653,2013-08-12 16:50:00,
2013-08-12 10:55:00,65.5,43.6,30.33,ESE,116,0.0,8.0,45,0.00,,,0.00,331,WeatherCatV1.20B653,2013-08-12 16:55:00,
2013-08-12 11:00:00,65.6,47.0,30.33,ESE,112,2.0,3.0,51,0.00,,,0.00,505,WeatherCatV1.20B653,2013-08-12 17:00:00,
2013-08-12 11:05:00,65.5,45.8,30.33,ESE,113,6.0,9.0,49,0.00,,,0.00,378,WeatherCatV1.20B653,2013-08-12 17:05:00,
2013-08-12 11:10:00,65.3,43.4,30.33,East,93,0.0,1.0,45,0.00,,,0.00,333,WeatherCatV1.20B653,2013-08-12 17:10:00,
2013-08-12 11:15:00,65.8,43.9,30.32,East,92,0.0,0.0,45,0.00,,,0.00,333,WeatherCatV1.20B653,2013-08-12 17:15:00,
2013-08-12 11:20:00,65.8,47.2,30.32,East,92,0.0,0.0,51,0.00,,,0.00,311,WeatherCatV1.20B653,2013-08-12 17:20:00,
2013-08-12 11:25:00,66.0,46.3,30.32,East,92,2.0,5.0,49,0.00,,,0.00,311,WeatherCatV1.20B653,2013-08-12 17:25:00,
2013-08-12 11:30:00,66.4,45.0,30.32,East,95,0.0,0.0,46,0.00,,,0.00,417,WeatherCatV1.20B653,2013-08-12 17:30:00,
2013-08-12 11:35:00,66.9,44.9,30.32,East,95,0.0,2.0,45,0.00,,,0.00,417,WeatherCatV1.20B653,2013-08-12 17:35:00,
2013-08-12 11:40:00,67.8,44.5,30.32,East,95,0.0,0.0,43,0.00,,,0.00,343,WeatherCatV1.20B653,2013-08-12 17:40:00,
2013-08-12 11:45:00,67.9,45.8,30.32,ESE,102,4.0,7.0,45,0.00,,,0.00,384,WeatherCatV1.20B653,2013-08-12 17:45:00,
2013-08-12 11:50:00,68.6,44.6,30.32,ESE,114,6.0,8.0,42,0.00,,,0.00,841,WeatherCatV1.20B653,2013-08-12 17:50:00,
2013-08-12 11:55:00,69.8,44.4,30.32,ESE,110,2.0,11.0,40,0.00,,,0.00,1008,WeatherCatV1.20B653,2013-08-12 17:55:00,
2013-08-12 12:00:00,70.9,42.6,30.32,ESE,116,5.0,10.0,36,0.00,,,0.00,1008,WeatherCatV1.20B653,2013-08-12 18:00:00,
2013-08-12 12:05:00,70.4,41.4,30.32,SE,137,10.0,13.0,35,0.00,,,0.00,436,WeatherCatV1.20B653,2013-08-12 18:05:00,
2013-08-12 12:10:00,69.1,41.7,30.32,SE,128,6.0,14.0,37,0.00,,,0.00,317,WeatherCatV1.20B653,2013-08-12 18:10:00,
2013-08-12 12:15:00,68.9,38.6,30.31,NNE,28,3.0,12.0,33,0.00,,,0.00,1145,WeatherCatV1.20B653,2013-08-12 18:15:00,
2013-08-12 12:20:00,69.8,40.2,30.31,SE,124,0.0,12.0,34,0.00,,,0.00,890,WeatherCatV1.20B653,2013-08-12 18:20:00,
2013-08-12 12:25:00,69.8,41.6,30.31,East,83,1.0,10.0,36,0.00,,,0.00,246,WeatherCatV1.20B653,2013-08-12 18:25:00,
2013-08-12 12:30:00,70.4,42.2,30.31,ESE,123,6.0,12.0,36,0.00,,,0.00,1135,WeatherCatV1.20B653,2013-08-12 18:30:00,
2013-08-12 12:35:00,71.6,37.7,30.31,ESE,114,5.0,8.0,29,0.00,,,0.00,1114,WeatherCatV1.20B653,2013-08-12 18:35:00,
2013-08-12 12:40:00,72.1,37.2,30.31,ENE,69,0.0,5.0,28,0.00,,,0.00,1075,WeatherCatV1.20B653,2013-08-12 18:40:00,
2013-08-12 12:45:00,72.8,37.8,30.30,NE,52,7.0,7.0,28,0.00,,,0.00,1012,WeatherCatV1.20B653,2013-08-12 18:45:00,
2013-08-12 12:50:00,73.2,38.1,30.30,East,80,1.0,9.0,28,0.00,,,0.00,1008,WeatherCatV1.20B653,2013-08-12 18:50:00,
2013-08-12 12:55:00,74.0,35.9,30.30,East,83,0.0,1.0,25,0.00,,,0.00,1128,WeatherCatV1.20B653,2013-08-12 18:55:00,
2013-08-12 13:00:00,73.9,35.8,30.29,East,90,0.0,15.0,25,0.00,,,0.00,306,WeatherCatV1.20B653,2013-08-12 19:00:00,
2013-08-12 13:05:00,72.7,36.8,30.29,ESE,123,12.0,14.0,27,0.00,,,0.00,405,WeatherCatV1.20B653,2013-08-12 19:05:00,
2013-08-12 13:10:00,70.9,36.2,30.29,SE,128,7.0,15.0,28,0.00,,,0.00,306,WeatherCatV1.20B653,2013-08-12 19:10:00,
2013-08-12 13:15:00,69.9,36.2,30.30,SSE,152,12.0,13.0,29,0.00,,,0.00,262,WeatherCatV1.20B653,2013-08-12 19:15:00,
2013-08-12 13:20:00,69.1,37.2,30.30,SSE,150,8.0,17.0,31,0.00,,,0.00,311,WeatherCatV1.20B653,2013-08-12 19:20:00,
2013-08-12 13:25:00,68.6,38.3,30.30,SSE,167,9.0,12.0,33,0.00,,,0.00,283,WeatherCatV1.20B653,2013-08-12 19:25:00,
2013-08-12 13:30:00,68.1,39.4,30.30,SSE,162,12.0,19.0,35,0.00,,,0.00,216,WeatherCatV1.20B653,2013-08-12 19:30:00,
2013-08-12 13:35:00,67.6,39.0,30.30,South,181,12.0,14.0,35,0.00,,,0.00,199,WeatherCatV1.20B653,2013-08-12 19:35:00,
2013-08-12 13:40:00,67.4,39.5,30.30,South,188,12.0,13.0,36,0.00,,,0.00,190,WeatherCatV1.20B653,2013-08-12 19:40:00,
2013-08-12 13:45:00,67.1,37.8,30.30,SSE,157,13.0,20.0,34,0.00,,,0.00,183,WeatherCatV1.20B653,2013-08-12 19:45:00,
2013-08-12 13:50:00,66.9,37.6,30.30,SSE,157,8.0,13.0,34,0.00,,,0.00,183,WeatherCatV1.20B653,2013-08-12 19:50:00,
2013-08-12 13:55:00,67.3,38.0,30.30,SSE,154,9.0,14.0,34,0.00,,,0.00,213,WeatherCatV1.20B653,2013-08-12 19:55:00,
2013-08-12 14:00:00,66.3,40.6,30.31,SSE,148,7.0,12.0,39,0.00,,,0.00,366,WeatherCatV1.20B653,2013-08-12 20:00:00,
2013-08-12 14:05:00,65.5,39.9,30.31,NW,322,5.0,12.0,39,0.00,,,0.01,556,WeatherCatV1.20B653,2013-08-12 20:05:00,
2013-08-12 14:10:00,65.8,46.6,30.31,NE,54,6.0,8.0,50,0.00,,,0.01,934,WeatherCatV1.20B653,2013-08-12 20:10:00,
2013-08-12 14:15:00,66.9,43.7,30.30,NE,51,0.0,1.0,43,0.00,,,0.01,934,WeatherCatV1.20B653,2013-08-12 20:15:00,
2013-08-12 14:20:00,68.6,44.6,30.30,East,100,0.0,7.0,42,0.00,,,0.01,1093,WeatherCatV1.20B653,2013-08-12 20:20:00,
2013-08-12 14:25:00,69.6,38.4,30.30,East,100,0.0,0.0,32,0.00,,,0.01,338,WeatherCatV1.20B653,2013-08-12 20:25:00,
2013-08-12 14:30:00,69.9,39.5,30.29,East,79,2.0,3.0,33,0.00,,,0.01,421,WeatherCatV1.20B653,2013-08-12 20:30:00,
2013-08-12 14:35:00,68.8,40.8,30.29,SE,141,10.0,17.0,36,0.00,,,0.01,266,WeatherCatV1.20B653,2013-08-12 20:35:00,
2013-08-12 14:40:00,66.9,39.8,30.29,SSE,165,12.0,18.0,37,0.00,,,0.01,183,WeatherCatV1.20B653,2013-08-12 20:40:00,
2013-08-12 14:45:00,66.0,38.3,30.30,South,186,10.0,13.0,36,0.00,,,0.01,135,WeatherCatV1.20B653,2013-08-12 20:45:00,
2013-08-12 14:50:00,65.6,37.9,30.30,South,171,5.0,13.0,36,0.00,,,0.01,123,WeatherCatV1.20B653,2013-08-12 20:50:00,
2013-08-12 14:55:00,65.3,39.0,30.30,NW,323,11.0,13.0,38,0.00,,,0.01,116,WeatherCatV1.20B653,2013-08-12 20:55:00,
2013-08-12 15:00:00,65.3,36.9,30.31,SW,220,3.0,17.0,35,0.00,,,0.01,143,WeatherCatV1.20B653,2013-08-12 21:00:00,
2013-08-12 15:05:00,65.2,38.3,30.31,WSW,251,6.0,13.0,37,0.00,,,0.01,227,WeatherCatV1.20B653,2013-08-12 21:05:00,
2013-08-12 15:10:00,65.5,37.1,30.31,SW,222,6.0,14.0,35,0.00,,,0.01,542,WeatherCatV1.20B653,2013-08-12 21:10:00,
2013-08-12 15:15:00,66.1,40.4,30.30,SSW,200,5.0,10.0,39,0.00,,,0.01,424,WeatherCatV1.20B653,2013-08-12 21:15:00,
2013-08-12 15:20:00,66.9,39.8,30.30,SSW,192,6.0,8.0,37,0.00,,,0.01,542,WeatherCatV1.20B653,2013-08-12 21:20:00,
2013-08-12 15:25:00,67.6,39.7,30.30,ESE,116,2.0,10.0,36,0.00,,,0.01,385,WeatherCatV1.20B653,2013-08-12 21:25:00,
2013-08-12 15:30:00,67.8,41.3,30.29,SE,138,7.0,7.0,38,0.00,,,0.01,398,WeatherCatV1.20B653,2013-08-12 21:30:00,
2013-08-12 15:35:00,68.3,41.7,30.29,ESE,106,3.0,10.0,38,0.00,,,0.01,436,WeatherCatV1.20B653,2013-08-12 21:35:00,
2013-08-12 15:40:00,68.1,41.5,30.29,ESE,121,2.0,5.0,38,0.00,,,0.01,509,WeatherCatV1.20B653,2013-08-12 21:40:00,
2013-08-12 15:45:00,68.8,40.0,30.29,ESE,116,0.0,2.0,35,0.00,,,0.01,456,WeatherCatV1.20B653,2013-08-12 21:45:00,
2013-08-12 15:50:00,69.4,42.0,30.29,East,88,0.0,0.0,37,0.00,,,0.01,348,WeatherCatV1.20B653,2013-08-12 21:50:00,
2013-08-12 15:55:00,69.8,42.3,30.29,North,350,3.0,8.0,37,0.00,,,0.01,283,WeatherCatV1.20B653,2013-08-12 21:55:00,
2013-08-12 16:00:00,69.3,41.9,30.29,North,0,8.0,10.0,37,0.00,,,0.01,329,WeatherCatV1.20B653,2013-08-12 22:00:00,
2013-08-12 16:05:00,69.3,41.2,30.29,North,0,5.0,9.0,36,0.00,,,0.01,377,WeatherCatV1.20B653,2013-08-12 22:05:00,
2013-08-12 16:10:00,69.1,40.3,30.29,NE,40,7.0,11.0,35,0.00,,,0.01,195,WeatherCatV1.20B653,2013-08-12 22:10:00,
2013-08-12 16:15:00,68.4,40.4,30.29,NNE,23,11.0,13.0,36,0.00,,,0.01,146,WeatherCatV1.20B653,2013-08-12 22:15:00,
2013-08-12 16:20:00,67.1,41.3,30.29,NE,42,1.0,7.0,39,0.00,,,0.01,99,WeatherCatV1.20B653,2013-08-12 22:20:00,
2013-08-12 16:25:00,66.3,41.2,30.29,North,1,7.0,12.0,40,0.00,,,0.01,93,WeatherCatV1.20B653,2013-08-12 22:25:00,
2013-08-12 16:30:00,65.6,41.3,30.30,North,354,10.0,10.0,41,0.00,,,0.01,125,WeatherCatV1.20B653,2013-08-12 22:30:00,
2013-08-12 16:35:00,65.2,40.9,30.30,North,0,7.0,10.0,41,0.00,,,0.01,165,WeatherCatV1.20B653,2013-08-12 22:35:00,
2013-08-12 16:40:00,65.2,40.9,30.30,NE,34,5.0,7.0,41,0.00,,,0.01,176,WeatherCatV1.20B653,2013-08-12 22:40:00,
2013-08-12 16:45:00,65.2,40.9,30.30,ENE,64,3.0,8.0,41,0.00,,,0.01,188,WeatherCatV1.20B653,2013-08-12 22:45:00,
2013-08-12 16:50:00,65.3,41.0,30.30,NNE,32,2.0,7.0,41,0.00,,,0.01,206,WeatherCatV1.20B653,2013-08-12 22:50:00,
2013-08-12 16:55:00,65.3,40.3,30.30,NNE,32,0.0,3.0,40,0.00,,,0.01,218,WeatherCatV1.20B653,2013-08-12 22:55:00,
2013-08-12 17:00:00,65.5,39.9,30.30,NE,42,0.0,2.0,39,0.00,,,0.01,225,WeatherCatV1.20B653,2013-08-12 23:00:00,
2013-08-12 17:05:00,65.6,41.3,30.30,NE,42,0.0,3.0,41,0.00,,,0.01,241,WeatherCatV1.20B653,2013-08-12 23:05:00,
2013-08-12 17:10:00,65.8,40.8,30.30,East,99,5.0,10.0,40,0.00,,,0.01,283,WeatherCatV1.20B653,2013-08-12 23:10:00,
2013-08-12 17:15:00,66.0,40.3,30.30,ENE,58,3.0,6.0,39,0.00,,,0.01,225,WeatherCatV1.20B653,2013-08-12 23:15:00,
2013-08-12 17:20:00,65.6,42.5,30.30,SE,127,8.0,11.0,43,0.00,,,0.01,197,WeatherCatV1.20B653,2013-08-12 23:20:00,
2013-08-12 17:25:00,64.2,44.1,30.30,East,88,4.0,10.0,48,0.00,,,0.01,197,WeatherCatV1.20B653,2013-08-12 23:25:00,
2013-08-12 17:30:00,63.4,44.4,30.31,ESE,120,9.0,11.0,50,0.00,,,0.01,179,WeatherCatV1.20B653,2013-08-12 23:30:00,
2013-08-12 17:35:00,62.4,45.0,30.31,ESE,112,2.0,7.0,53,0.00,,,0.01,144,WeatherCatV1.20B653,2013-08-12 23:35:00,
2013-08-12 17:40:00,62.0,44.2,30.31,East,100,4.0,10.0,52,0.00,,,0.01,139,WeatherCatV1.20B653,2013-08-12 23:40:00,
2013-08-12 17:45:00,62.0,44.7,30.31,East,100,0.0,7.0,53,0.00,,,0.01,160,WeatherCatV1.20B653,2013-08-12 23:45:00,
2013-08-12 17:50:00,62.0,44.7,30.31,ESE,116,7.0,10.0,53,0.00,,,0.01,171,WeatherCatV1.20B653,2013-08-12 23:50:00,
2013-08-12 17:55:00,61.8,44.5,30.31,SE,133,6.0,11.0,53,0.00,,,0.01,132,WeatherCatV1.20B653,2013-08-12 23:55:00,
2013-08-12 18:00:00,61.6,43.8,30.31,SE,133,3.0,6.0,52,0.00,,,0.01,109,WeatherCatV1.20B653,2013-08-13 00:00:00,
2013-08-12 18:05:00,61.8,44.0,30.31,SE,134,0.0,4.0,52,0.00,,,0.01,109,WeatherCatV1.20B653,2013-08-13 00:05:00,
2013-08-12 18:10:00,61.8,44.0,30.31,SE,133,2.0,2.0,52,0.00,,,0.01,84,WeatherCatV1.20B653,2013-08-13 00:10:00,
2013-08-12 18:15:00,61.8,44.0,30.31,SE,128,0.0,2.0,52,0.00,,,0.01,56,WeatherCatV1.20B653,2013-08-13 00:15:00,
2013-08-12 18:20:00,61.6,43.8,30.31,SE,127,0.0,1.0,52,0.00,,,0.01,46,WeatherCatV1.20B653,2013-08-13 00:20:00,
2013-08-12 18:25:00,61.5,43.2,30.31,SE,127,1.0,2.0,51,0.00,,,0.01,28,WeatherCatV1.20B653,2013-08-13 00:25:00,
2013-08-12 18:30:00,61.3,43.0,30.31,SE,127,0.0,0.0,51,0.00,,,0.01,23,WeatherCatV1.20B653,2013-08-13 00:30:00,
2013-08-12 18:35:00,61.3,42.5,30.31,SE,127,0.0,0.0,50,0.00,,,0.01,18,WeatherCatV1.20B653,2013-08-13 00:35:00,
2013-08-12 18:40:00,61.2,43.9,30.31,NW,325,7.0,7.0,53,0.00,,,0.01,18,WeatherCatV1.20B653,2013-08-13 00:40:00,
2013-08-12 18:45:00,60.7,43.5,30.32,NW,320,16.0,21.0,53,0.00,,,0.01,19,WeatherCatV1.20B653,2013-08-13 00:45:00,
2013-08-12 18:50:00,58.3,47.0,30.32,NW,325,12.0,19.0,66,0.00,,,0.02,19,WeatherCatV1.20B653,2013-08-13 00:50:00,
2013-08-12 18:55:00,55.6,46.0,30.32,NW,318,12.0,18.0,70,0.20,,,0.03,26,WeatherCatV1.20B653,2013-08-13 00:55:00,
2013-08-12 19:00:00,54.7,46.6,30.33,NW,322,14.0,14.0,74,0.10,,,0.04,137,WeatherCatV1.20B653,2013-08-13 01:00:00,
2013-08-12 19:05:00,54.4,46.3,30.33,NW,318,7.0,11.0,74,0.09,,,0.04,148,WeatherCatV1.20B653,2013-08-13 01:05:00,
2013-08-12 19:10:00,54.5,47.4,30.33,NW,318,3.0,7.0,77,0.05,,,0.04,88,WeatherCatV1.20B653,2013-08-13 01:10:00,
2013-08-12 19:15:00,54.4,47.3,30.32,NW,318,0.0,2.0,77,0.04,,,0.04,58,WeatherCatV1.20B653,2013-08-13 01:15:00,
2013-08-12 19:20:00,54.4,47.3,30.32,NW,318,3.0,5.0,77,0.00,,,0.04,42,WeatherCatV1.20B653,2013-08-13 01:20:00,
2013-08-12 19:25:00,54.2,48.2,30.32,NW,325,2.0,3.0,80,0.00,,,0.04,28,WeatherCatV1.20B653,2013-08-13 01:25:00,
2013-08-12 19:30:00,54.1,47.7,30.32,NW,323,6.0,6.0,79,0.00,,,0.04,26,WeatherCatV1.20B653,2013-08-13 01:30:00,
2013-08-12 19:35:00,53.6,45.5,30.32,NW,320,2.0,10.0,74,0.00,,,0.04,21,WeatherCatV1.20B653,2013-08-13 01:35:00,
2013-08-12 19:40:00,53.5,45.8,30.32,NW,319,3.0,5.0,75,0.00,,,0.04,11,WeatherCatV1.20B653,2013-08-13 01:40:00,
2013-08-12 19:45:00,53.5,46.8,30.32,NW,319,0.0,0.0,78,0.00,,,0.04,9,WeatherCatV1.20B653,2013-08-13 01:45:00,
2013-08-12 19:50:00,53.2,45.8,30.32,NW,319,0.0,0.0,76,0.00,,,0.04,7,WeatherCatV1.20B653,2013-08-13 01:50:00,
2013-08-12 19:55:00,52.9,45.9,30.32,NW,319,0.0,0.0,77,0.00,,,0.04,7,WeatherCatV1.20B653,2013-08-13 01:55:00,
2013-08-12 20:00:00,52.8,46.8,30.32,WNW,296,7.0,8.0,80,0.00,,,0.04,5,WeatherCatV1.20B653,2013-08-13 02:00:00,
2013-08-12 20:05:00,52.5,46.5,30.32,NW,306,5.0,7.0,80,0.00,,,0.04,0,WeatherCatV1.20B653,2013-08-13 02:05:00,
2013-08-12 20:10:00,52.3,46.3,30.32,WNW,302,6.0,6.0,80,0.00,,,0.04,0,WeatherCatV1.20B653,2013-08-13 02:10:00,
2013-08-12 20:15:00,52.0,45.7,30.33,NW,304,3.0,6.0,79,0.00,,,0.04,0,WeatherCatV1.20B653,2013-08-13 02:15:00,
2013-08-12 20:20:00,51.7,45.4,30.33,NW,318,4.0,7.0,79,0.00,,,0.04,0,WeatherCatV1.20B653,2013-08-13 02:20:00,
2013-08-12 20:25:00,51.3,46.0,30.33,NW,318,0.0,2.0,82,0.00,,,0.04,0,WeatherCatV1.20B653,2013-08-13 02:25:00,
2013-08-12 20:30:00,50.8,45.2,30.33,NW,318,1.0,2.0,81,0.00,,,0.04,0,WeatherCatV1.20B653,2013-08-13 02:30:00,
2013-08-12 20:35:00,50.4,45.1,30.33,NW,315,0.0,5.0,82,0.00,,,0.04,0,WeatherCatV1.20B653,2013-08-13 02:35:00,
2013-08-12 20:40:00,50.2,44.6,30.33,NW,315,1.0,3.0,81,0.00,,,0.04,0,WeatherCatV1.20B653,2013-08-13 02:40:00,
2013-08-12 20:45:00,49.9,44.9,30.34,NW,315,0.0,0.0,83,0.00,,,0.04,0,WeatherCatV1.20B653,2013-08-13 02:45:00,
2013-08-12 20:50:00,49.6,44.7,30.34,NW,315,0.0,0.0,83,0.00,,,0.04,0,WeatherCatV1.20B653,2013-08-13 02:50:00,
2013-08-12 20:55:00,49.5,44.9,30.34,NW,313,4.0,5.0,84,0.00,,,0.04,0,WeatherCatV1.20B653,2013-08-13 02:55:00,
2013-08-12 21:00:00,49.9,44.3,30.34,NW,306,6.0,8.0,81,0.00,,,0.04,0,WeatherCatV1.20B653,2013-08-13 03:00:00,
2013-08-12 21:05:00,50.5,43.9,30.34,WNW,294,2.0,10.0,78,0.00,,,0.04,0,WeatherCatV1.20B653,2013-08-13 03:05:00,
2013-08-12 21:10:00,51.3,43.7,30.34,NW,313,6.0,8.0,75,0.00,,,0.04,0,WeatherCatV1.20B653,2013-08-13 03:10:00,
2013-08-12 21:15:00,52.0,44.0,30.34,WNW,296,4.0,7.0,74,0.00,,,0.04,0,WeatherCatV1.20B653,2013-08-13 03:15:00,
2013-08-12 21:20:00,52.5,43.7,30.34,West,267,10.0,13.0,72,0.00,,,0.04,0,WeatherCatV1.20B653,2013-08-13 03:20:00,
2013-08-12 21:25:00,52.8,43.7,30.34,NW,309,11.0,13.0,71,0.00,,,0.05,0,WeatherCatV1.20B653,2013-08-13 03:25:00,
2013-08-12 21:30:00,53.3,42.2,30.34,NNW,329,7.0,13.0,66,0.00,,,0.05,0,WeatherCatV1.20B653,2013-08-13 03:30:00,
2013-08-12 21:35:00,54.1,42.6,30.34,NW,319,7.0,11.0,65,0.00,,,0.05,0,WeatherCatV1.20B653,2013-08-13 03:35:00,
2013-08-12 21:40:00,54.4,42.5,30.34,West,277,3.0,11.0,64,0.00,,,0.05,0,WeatherCatV1.20B653,2013-08-13 03:40:00,
2013-08-12 21:45:00,54.7,42.8,30.35,WNW,285,4.0,7.0,64,0.00,,,0.05,0,WeatherCatV1.20B653,2013-08-13 03:45:00,
2013-08-12 21:52:00,54.8,42.9,30.35,West,260,0.0,0.0,64,0.00,,,0.05,0,WeatherCatV1.20B653,2013-08-13 03:52:00,
2013-08-12 21:58:00,54.7,43.2,30.35,West,260,0.0,3.0,65,0.00,,,0.05,0,WeatherCatV1.20B653,2013-08-13 03:58:00,
2013-08-12 22:01:00,54.5,43.4,30.35,West,260,2.0,4.0,66,0.00,,,0.05,0,WeatherCatV1.20B653,2013-08-13 04:01:00,
2013-08-12 22:06:00,53.8,44.6,30.35,South,172,6.0,6.0,71,0.00,,,0.05,0,WeatherCatV1.20B653,2013-08-13 04:06:00,
2013-08-12 22:11:00,53.3,43.4,30.35,South,179,0.0,3.0,69,0.00,,,0.05,0,WeatherCatV1.20B653,2013-08-13 04:11:00,
2013-08-12 22:16:00,53.3,43.0,30.36,South,179,0.0,0.0,68,0.00,,,0.05,0,WeatherCatV1.20B653,2013-08-13 04:16:00,
2013-08-12 22:21:00,53.3,43.8,30.36,South,179,0.0,0.0,70,0.00,,,0.05,0,WeatherCatV1.20B653,2013-08-13 04:21:00,
2013-08-12 22:26:00,53.2,44.8,30.36,South,179,0.0,0.0,73,0.00,,,0.05,0,WeatherCatV1.20B653,2013-08-13 04:26:00,
2013-08-12 22:31:00,52.9,44.5,30.35,South,179,0.0,0.0,73,0.00,,,0.05,0,WeatherCatV1.20B653,2013-08-13 04:31:00,
2013-08-12 22:36:00,52.6,44.5,30.35,South,179,0.0,0.0,74,0.00,,,0.05,0,WeatherCatV1.20B653,2013-08-13 04:36:00,
2013-08-12 22:41:00,52.5,44.8,30.35,South,179,0.0,0.0,75,0.00,,,0.05,0,WeatherCatV1.20B653,2013-08-13 04:41:00,
2013-08-12 22:46:00,52.0,44.7,30.35,South,179,0.0,0.0,76,0.00,,,0.05,0,WeatherCatV1.20B653,2013-08-13 04:46:00,
2013-08-12 22:51:00,51.6,44.6,30.35,South,179,0.0,0.0,77,0.00,,,0.05,0,WeatherCatV1.20B653,2013-08-13 04:51:00,
2013-08-12 22:56:00,51.1,44.8,30.35,South,179,0.0,0.0,79,0.00,,,0.05,0,WeatherCatV1.20B653,2013-08-13 04:56:00,
2013-08-12 23:01:00,50.5,44.6,30.35,South,179,0.0,0.0,80,0.00,,,0.05,0,WeatherCatV1.20B653,2013-08-13 05:01:00,
2013-08-12 23:06:00,49.9,43.7,30.35,South,179,0.0,0.0,79,0.00,,,0.05,0,WeatherCatV1.20B653,2013-08-13 05:06:00,
2013-08-12 23:11:00,49.5,43.3,30.35,South,179,0.0,0.0,79,0.00,,,0.05,0,WeatherCatV1.20B653,2013-08-13 05:11:00,
2013-08-12 23:16:00,49.1,43.2,30.35,South,179,0.0,0.0,80,0.00,,,0.05,0,WeatherCatV1.20B653,2013-08-13 05:16:00,
2013-08-12 23:21:00,48.8,42.9,30.35,South,181,0.0,0.0,80,0.00,,,0.05,0,WeatherCatV1.20B653,2013-08-13 05:21:00,
2013-08-12 23:26:00,48.6,42.4,30.35,South,178,1.0,5.0,79,0.00,,,0.05,0,WeatherCatV1.20B653,2013-08-13 05:26:00,
2013-08-12 23:31:00,48.8,42.2,30.35,WNW,292,7.0,13.0,78,0.00,,,0.05,0,WeatherCatV1.20B653,2013-08-13 05:31:00,
2013-08-12 23:36:00,49.4,42.2,30.35,NW,308,11.0,13.0,76,0.00,,,0.05,0,WeatherCatV1.20B653,2013-08-13 05:36:00,
2013-08-12 23:41:00,49.8,41.8,30.35,WNW,296,1.0,8.0,74,0.00,,,0.05,0,WeatherCatV1.20B653,2013-08-13 05:41:00,
2013-08-12 23:46:00,49.8,42.2,30.35,WNW,296,1.0,3.0,75,0.00,,,0.05,0,WeatherCatV1.20B653,2013-08-13 05:46:00,
2013-08-12 23:51:00,49.2,41.3,30.35,WNW,296,2.0,7.0,74,0.00,,,0.05,0,WeatherCatV1.20B653,2013-08-13 05:51:00,
2013-08-12 23:56:00,49.1,41.2,30.35,WNW,302,0.0,6.0,74,0.00,,,0.05,0,WeatherCatV1.20B653,2013-08-13 05:56:00,